sensor_id;sensor_type;location;lat;lon;timestamp;pressure;altitude;pressure_sealevel;temperature;humidity
68891;BME280;55932;48.702;8.884;2023-03-03T00:00:48;96260;;;1.4;64
68891;BME280;55932;48.702;8.884;2023-03-03T00:05:38;96260;;;1.4;64
68891;BME280;55932;48.702;8.884;2023-03-03T00:08:17;96260;;;1.4;64
68891;BME280;55932;48.702;8.884;2023-03-03T00:10:47;96260;;;1.5;64
68891;BME280;55932;48.702;8.884;2023-03-03T00:15:28;96270;;;1.6;64
68891;BME280;55932;48.702;8.884;2023-03-03T00:18:45;96270;;;1.6;64
68891;BME280;55932;48.702;8.884;2023-03-03T00:20:46;96270;;;1.5;64
68891;BME280;55932;48.702;8.884;2023-03-03T00:23:08;96280;;;1.4;64
68891;BME280;55932;48.702;8.884;2023-03-03T00:25:30;96270;;;1.4;64
68891;BME280;55932;48.702;8.884;2023-03-03T00:38:24;96280;;;1;64.5
68891;BME280;55932;48.702;8.884;2023-03-03T00:40:59;96270;;;0.8;64.5
68891;BME280;55932;48.702;8.884;2023-03-03T00:43:27;96280;;;0.5;65
68891;BME280;55932;48.702;8.884;2023-03-03T00:45:45;96280;;;0.3;65
68891;BME280;55932;48.702;8.884;2023-03-03T00:48:31;96270;;;0;65.5
68891;BME280;55932;48.702;8.884;2023-03-03T00:50:55;96270;;;0;65.5
68891;BME280;55932;48.702;8.884;2023-03-03T01:00:57;96270;;;-0.6;65.5
68891;BME280;55932;48.702;8.884;2023-03-03T01:03:28;96280;;;-0.8;65.5
68891;BME280;55932;48.702;8.884;2023-03-03T01:08:29;96280;;;-1;66
68891;BME280;55932;48.702;8.884;2023-03-03T01:11:03;96270;;;-1.1;66
68891;BME280;55932;48.702;8.884;2023-03-03T01:13:40;96280;;;-1.1;66
68891;BME280;55932;48.702;8.884;2023-03-03T01:21:02;96280;;;-1.4;66
68891;BME280;55932;48.702;8.884;2023-03-03T01:23:32;96270;;;-1.4;66
68891;BME280;55932;48.702;8.884;2023-03-03T01:26:03;96270;;;-1.4;66
68891;BME280;55932;48.702;8.884;2023-03-03T01:28:22;96270;;;-1.5;66
68891;BME280;55932;48.702;8.884;2023-03-03T01:30:52;96270;;;-1.5;66
68891;BME280;55932;48.702;8.884;2023-03-03T01:33:22;96270;;;-1.6;66
68891;BME280;55932;48.702;8.884;2023-03-03T01:35:42;96270;;;-1.6;66
68891;BME280;55932;48.702;8.884;2023-03-03T01:38:11;96270;;;-1.6;66
68891;BME280;55932;48.702;8.884;2023-03-03T01:40:42;96270;;;-1.7;66
68891;BME280;55932;48.702;8.884;2023-03-03T01:43:14;96270;;;-1.7;66
68891;BME280;55932;48.702;8.884;2023-03-03T01:48:17;96280;;;-1.8;66
68891;BME280;55932;48.702;8.884;2023-03-03T01:53:16;96270;;;-1.9;65.5
68891;BME280;55932;48.702;8.884;2023-03-03T02:05:58;96270;;;-2.1;65.5
68891;BME280;55932;48.702;8.884;2023-03-03T02:11:10;96260;;;-2.1;66
68891;BME280;55932;48.702;8.884;2023-03-03T02:16:11;96250;;;-2.1;65.5
68891;BME280;55932;48.702;8.884;2023-03-03T02:18:41;96250;;;-2;65.5
68891;BME280;55932;48.702;8.884;2023-03-03T02:21:13;96250;;;-2.1;65.5
68891;BME280;55932;48.702;8.884;2023-03-03T02:23:44;96250;;;-2.1;65.5
68891;BME280;55932;48.702;8.884;2023-03-03T02:26:12;96250;;;-2;65.5
68891;BME280;55932;48.702;8.884;2023-03-03T02:28:32;96240;;;-2.1;65.5
68891;BME280;55932;48.702;8.884;2023-03-03T02:31:02;96240;;;-2.1;65.5
68891;BME280;55932;48.702;8.884;2023-03-03T02:33:31;96240;;;-2.2;65.5
68891;BME280;55932;48.702;8.884;2023-03-03T02:38:23;96240;;;-2.1;65.5
68891;BME280;55932;48.702;8.884;2023-03-03T02:41:02;96240;;;-2.1;65.5
68891;BME280;55932;48.702;8.884;2023-03-03T02:50:57;96250;;;-2.1;65.5
68891;BME280;55932;48.702;8.884;2023-03-03T02:53:23;96250;;;-2.2;65.5
68891;BME280;55932;48.702;8.884;2023-03-03T02:58:24;96250;;;-2.2;65.5
68891;BME280;55932;48.702;8.884;2023-03-03T03:00:54;96250;;;-2;65.5
68891;BME280;55932;48.702;8.884;2023-03-03T03:03:25;96260;;;-1.9;65.5
68891;BME280;55932;48.702;8.884;2023-03-03T03:05:56;96250;;;-1.9;65.5
68891;BME280;55932;48.702;8.884;2023-03-03T03:13:27;96250;;;-1.6;65.5
68891;BME280;55932;48.702;8.884;2023-03-03T03:15:58;96260;;;-1.5;65
68891;BME280;55932;48.702;8.884;2023-03-03T03:18:29;96260;;;-1.2;65
68891;BME280;55932;48.702;8.884;2023-03-03T03:23:40;96260;;;-0.7;64.5
68891;BME280;55932;48.702;8.884;2023-03-03T03:28:41;96250;;;-0.4;64.5
68891;BME280;55932;48.702;8.884;2023-03-03T03:31:11;96250;;;-0.4;64.5
68891;BME280;55932;48.702;8.884;2023-03-03T03:33:50;96250;;;-0.3;64.5
68891;BME280;55932;48.702;8.884;2023-03-03T03:41:32;96260;;;-0.1;64.5
68891;BME280;55932;48.702;8.884;2023-03-03T03:46:24;96260;;;0;64.5
68891;BME280;55932;48.702;8.884;2023-03-03T03:51:25;96260;;;0.1;64.5
68891;BME280;55932;48.702;8.884;2023-03-03T03:53:56;96250;;;0.2;64.5
68891;BME280;55932;48.702;8.884;2023-03-03T03:56:26;96250;;;0.3;64.5
68891;BME280;55932;48.702;8.884;2023-03-03T03:59:06;96250;;;0.3;64.5
68891;BME280;55932;48.702;8.884;2023-03-03T04:04:07;96260;;;0.5;64.5
68891;BME280;55932;48.702;8.884;2023-03-03T04:06:38;96260;;;0.4;64.5
68891;BME280;55932;48.702;8.884;2023-03-03T04:11:29;96250;;;0.5;64.5
68891;BME280;55932;48.702;8.884;2023-03-03T04:14:00;96250;;;0.7;64.5
68891;BME280;55932;48.702;8.884;2023-03-03T04:16:30;96250;;;0.7;64
68891;BME280;55932;48.702;8.884;2023-03-03T04:18:50;96250;;;0.7;64.5
68891;BME280;55932;48.702;8.884;2023-03-03T04:21:20;96250;;;0.7;64.5
68891;BME280;55932;48.702;8.884;2023-03-03T04:23:50;96250;;;0.8;64.5
68891;BME280;55932;48.702;8.884;2023-03-03T04:31:41;96260;;;0.9;64
68891;BME280;55932;48.702;8.884;2023-03-03T04:34:12;96260;;;0.9;64
68891;BME280;55932;48.702;8.884;2023-03-03T04:36:52;96260;;;1;64
68891;BME280;55932;48.702;8.884;2023-03-03T04:41:23;96260;;;1;64
68891;BME280;55932;48.702;8.884;2023-03-03T04:43:53;96260;;;0.9;64
68891;BME280;55932;48.702;8.884;2023-03-03T04:51:24;96260;;;0.9;64.5
68891;BME280;55932;48.702;8.884;2023-03-03T04:59:15;96260;;;0.9;64
68891;BME280;55932;48.702;8.884;2023-03-03T05:04:07;96270;;;0.9;64.5
68891;BME280;55932;48.702;8.884;2023-03-03T05:06:37;96280;;;0.9;64.5
68891;BME280;55932;48.702;8.884;2023-03-03T05:11:27;96280;;;0.9;64.5
68891;BME280;55932;48.702;8.884;2023-03-03T05:13:57;96280;;;0.8;64.5
68891;BME280;55932;48.702;8.884;2023-03-03T05:16:28;96290;;;0.6;65
68891;BME280;55932;48.702;8.884;2023-03-03T05:21:17;96280;;;0.5;65.5
68891;BME280;55932;48.702;8.884;2023-03-03T05:23:47;96290;;;0.5;65.5
68891;BME280;55932;48.702;8.884;2023-03-03T05:26:18;96290;;;0.5;65.5
68891;BME280;55932;48.702;8.884;2023-03-03T05:28:48;96290;;;0.5;65.5
68891;BME280;55932;48.702;8.884;2023-03-03T05:31:19;96290;;;0.5;66
68891;BME280;55932;48.702;8.884;2023-03-03T05:33:49;96290;;;0.5;66
68891;BME280;55932;48.702;8.884;2023-03-03T05:36:20;96290;;;0.5;66
68891;BME280;55932;48.702;8.884;2023-03-03T05:43:51;96300;;;0.6;66
68891;BME280;55932;48.702;8.884;2023-03-03T05:46:22;96300;;;0.7;66
68891;BME280;55932;48.702;8.884;2023-03-03T05:51:34;96300;;;0.8;65.5
68891;BME280;55932;48.702;8.884;2023-03-03T05:54:04;96300;;;0.7;66
68891;BME280;55932;48.702;8.884;2023-03-03T05:56:34;96300;;;0.8;65.5
68891;BME280;55932;48.702;8.884;2023-03-03T05:58:53;96310;;;0.7;66
68891;BME280;55932;48.702;8.884;2023-03-03T06:01:24;96300;;;0.9;65.5
68891;BME280;55932;48.702;8.884;2023-03-03T06:08:56;96320;;;1.3;64.5
68891;BME280;55932;48.702;8.884;2023-03-03T06:11:26;96310;;;1.4;64
68891;BME280;55932;48.702;8.884;2023-03-03T06:13:57;96310;;;1.3;64.5
68891;BME280;55932;48.702;8.884;2023-03-03T06:26:40;96320;;;1.7;64
68891;BME280;55932;48.702;8.884;2023-03-03T06:29:11;96320;;;1.6;64
68891;BME280;55932;48.702;8.884;2023-03-03T06:31:40;96330;;;1.6;64
68891;BME280;55932;48.702;8.884;2023-03-03T06:36:30;96340;;;1.6;64
68891;BME280;55932;48.702;8.884;2023-03-03T06:39:22;96340;;;1.7;64
68891;BME280;55932;48.702;8.884;2023-03-03T06:42:02;96340;;;1.8;64
68891;BME280;55932;48.702;8.884;2023-03-03T06:44:33;96340;;;1.9;63.5
68891;BME280;55932;48.702;8.884;2023-03-03T06:49:13;96340;;;1.9;64
68891;BME280;55932;48.702;8.884;2023-03-03T06:51:43;96350;;;2;64
68891;BME280;55932;48.702;8.884;2023-03-03T06:54:14;96360;;;2.1;64
68891;BME280;55932;48.702;8.884;2023-03-03T07:01:34;96360;;;2;64
68891;BME280;55932;48.702;8.884;2023-03-03T07:04:09;96350;;;2.2;64
68891;BME280;55932;48.702;8.884;2023-03-03T07:06:34;96360;;;2.1;64
68891;BME280;55932;48.702;8.884;2023-03-03T07:09:12;96360;;;2.1;64
68891;BME280;55932;48.702;8.884;2023-03-03T07:14:18;96370;;;2.2;64.5
68891;BME280;55932;48.702;8.884;2023-03-03T07:16:50;96370;;;2.2;64.5
68891;BME280;55932;48.702;8.884;2023-03-03T07:19:18;96370;;;2.5;64
68891;BME280;55932;48.702;8.884;2023-03-03T07:26:37;96370;;;2.7;63.5
68891;BME280;55932;48.702;8.884;2023-03-03T07:29:18;96370;;;2.9;63.5
68891;BME280;55932;48.702;8.884;2023-03-03T07:31:38;96380;;;2.9;63.5
68891;BME280;55932;48.702;8.884;2023-03-03T07:34:19;96380;;;3;63.5
68891;BME280;55932;48.702;8.884;2023-03-03T07:36:39;96380;;;3.1;63
68891;BME280;55932;48.702;8.884;2023-03-03T07:39:17;96380;;;3.1;63.5
68891;BME280;55932;48.702;8.884;2023-03-03T07:41:40;96380;;;3.1;63.5
68891;BME280;55932;48.702;8.884;2023-03-03T07:44:25;96380;;;3.1;63.5
68891;BME280;55932;48.702;8.884;2023-03-03T07:54:34;96380;;;3.5;63.5
68891;BME280;55932;48.702;8.884;2023-03-03T07:57:10;96380;;;3.6;63
68891;BME280;55932;48.702;8.884;2023-03-03T07:59:25;96380;;;3.8;63
68891;BME280;55932;48.702;8.884;2023-03-03T08:07:14;96380;;;4.1;63
68891;BME280;55932;48.702;8.884;2023-03-03T08:09:38;96390;;;4.2;63
68891;BME280;55932;48.702;8.884;2023-03-03T08:14:38;96400;;;4.5;63
68891;BME280;55932;48.702;8.884;2023-03-03T08:17:13;96380;;;4.6;63
68891;BME280;55932;48.702;8.884;2023-03-03T08:19:29;96380;;;4.6;63
68891;BME280;55932;48.702;8.884;2023-03-03T08:22:27;96380;;;4.7;63
68891;BME280;55932;48.702;8.884;2023-03-03T08:26:58;96380;;;4.8;63
68891;BME280;55932;48.702;8.884;2023-03-03T08:32:10;96390;;;5.1;63.5
68891;BME280;55932;48.702;8.884;2023-03-03T08:34:42;96390;;;5.3;63.5
68891;BME280;55932;48.702;8.884;2023-03-03T08:37:13;96390;;;5.5;63
68891;BME280;55932;48.702;8.884;2023-03-03T08:39:30;96380;;;5.6;62.5
68891;BME280;55932;48.702;8.884;2023-03-03T08:47:01;96380;;;5.9;63
68891;BME280;55932;48.702;8.884;2023-03-03T08:52:13;96380;;;6.6;62.5
68891;BME280;55932;48.702;8.884;2023-03-03T08:57:23;96380;;;7;62
68891;BME280;55932;48.702;8.884;2023-03-03T08:59:45;96390;;;7.1;62
68891;BME280;55932;48.702;8.884;2023-03-03T09:02:34;96390;;;7;62
68891;BME280;55932;48.702;8.884;2023-03-03T09:04:46;96390;;;7;62
68891;BME280;55932;48.702;8.884;2023-03-03T09:07:19;96390;;;6.8;63
68891;BME280;55932;48.702;8.884;2023-03-03T09:09:48;96390;;;6.3;64.5
68891;BME280;55932;48.702;8.884;2023-03-03T09:12:20;96390;;;6.5;64
68891;BME280;55932;48.702;8.884;2023-03-03T09:14:49;96400;;;6.8;63.5
68891;BME280;55932;48.702;8.884;2023-03-03T09:19:47;96410;;;6.1;65.5
68891;BME280;55932;48.702;8.884;2023-03-03T09:22:19;96410;;;6.7;64
68891;BME280;55932;48.702;8.884;2023-03-03T09:24:43;96410;;;6.5;64
68891;BME280;55932;48.702;8.884;2023-03-03T09:27:18;96420;;;6.6;64
68891;BME280;55932;48.702;8.884;2023-03-03T09:29:39;96420;;;6.3;65
68891;BME280;55932;48.702;8.884;2023-03-03T09:32:17;96430;;;6.5;64
68891;BME280;55932;48.702;8.884;2023-03-03T09:34:39;96430;;;6.1;65
68891;BME280;55932;48.702;8.884;2023-03-03T09:37:40;96430;;;6.2;65.5
68891;BME280;55932;48.702;8.884;2023-03-03T09:39:39;96430;;;8.1;64.5
68891;BME280;55932;48.702;8.884;2023-03-03T09:42:27;96420;;;12;60.5
68891;BME280;55932;48.702;8.884;2023-03-03T09:44:52;96420;;;10.9;61.5
68891;BME280;55932;48.702;8.884;2023-03-03T09:52:09;96430;;;9.5;63.5
68891;BME280;55932;48.702;8.884;2023-03-03T09:54:32;96430;;;8.8;64
68891;BME280;55932;48.702;8.884;2023-03-03T09:57:35;96430;;;9;64.5
68891;BME280;55932;48.702;8.884;2023-03-03T09:59:35;96440;;;10.1;64
68891;BME280;55932;48.702;8.884;2023-03-03T10:02:05;96420;;;12.2;61.5
68891;BME280;55932;48.702;8.884;2023-03-03T10:12:06;96420;;;13;60.5
68891;BME280;55932;48.702;8.884;2023-03-03T10:22:25;96430;;;14.2;61
68891;BME280;55932;48.702;8.884;2023-03-03T10:27:24;96430;;;11.4;62
68891;BME280;55932;48.702;8.884;2023-03-03T10:32:35;96430;;;10.1;63.5
68891;BME280;55932;48.702;8.884;2023-03-03T10:37:23;96430;;;9.6;64
68891;BME280;55932;48.702;8.884;2023-03-03T10:39:54;96430;;;11.7;64
68891;BME280;55932;48.702;8.884;2023-03-03T10:44:52;96430;;;11;63.5
68891;BME280;55932;48.702;8.884;2023-03-03T10:50:06;96430;;;11.6;65.5
68891;BME280;55932;48.702;8.884;2023-03-03T10:52:37;96430;;;12;63.5
68891;BME280;55932;48.702;8.884;2023-03-03T10:55:09;96430;;;12.2;63.5
68891;BME280;55932;48.702;8.884;2023-03-03T11:00:07;96420;;;15.7;60.5
68891;BME280;55932;48.702;8.884;2023-03-03T11:02:37;96420;;;16.4;59
68891;BME280;55932;48.702;8.884;2023-03-03T11:04:56;96420;;;14.5;61.5
68891;BME280;55932;48.702;8.884;2023-03-03T11:10:12;96420;;;15.2;61.5
68891;BME280;55932;48.702;8.884;2023-03-03T11:13:08;96420;;;14;61.5
68891;BME280;55932;48.702;8.884;2023-03-03T11:15:12;96420;;;12.9;62.5
68891;BME280;55932;48.702;8.884;2023-03-03T11:17:46;96420;;;12.3;62
68891;BME280;55932;48.702;8.884;2023-03-03T11:20:10;96420;;;11.5;63
68891;BME280;55932;48.702;8.884;2023-03-03T11:22:43;96420;;;12.1;66
68891;BME280;55932;48.702;8.884;2023-03-03T11:32:32;96420;;;13.5;63
68891;BME280;55932;48.702;8.884;2023-03-03T11:34:59;96410;;;13.7;62.5
68891;BME280;55932;48.702;8.884;2023-03-03T11:37:28;96420;;;14.3;63
68891;BME280;55932;48.702;8.884;2023-03-03T11:39:58;96410;;;16.5;60.5
68891;BME280;55932;48.702;8.884;2023-03-03T11:42:37;96410;;;14.9;61
68891;BME280;55932;48.702;8.884;2023-03-03T11:45:01;96420;;;13.4;61.5
68891;BME280;55932;48.702;8.884;2023-03-03T11:50:12;96420;;;11.9;63
68891;BME280;55932;48.702;8.884;2023-03-03T11:52:31;96420;;;11.8;63
68891;BME280;55932;48.702;8.884;2023-03-03T11:55:03;96420;;;11.8;63
68891;BME280;55932;48.702;8.884;2023-03-03T11:57:30;96410;;;11.2;63.5
68891;BME280;55932;48.702;8.884;2023-03-03T12:00:16;96410;;;10.3;63.5
68891;BME280;55932;48.702;8.884;2023-03-03T12:02:32;96410;;;10.2;63.5
68891;BME280;55932;48.702;8.884;2023-03-03T12:15:03;96390;;;10.8;64
68891;BME280;55932;48.702;8.884;2023-03-03T12:17:37;96390;;;10.8;64.5
68891;BME280;55932;48.702;8.884;2023-03-03T12:22:59;96390;;;11.6;64
68891;BME280;55932;48.702;8.884;2023-03-03T12:25:29;96390;;;11.4;64.5
68891;BME280;55932;48.702;8.884;2023-03-03T12:30:19;96390;;;11.6;63.5
68891;BME280;55932;48.702;8.884;2023-03-03T12:32:51;96390;;;11.5;64
68891;BME280;55932;48.702;8.884;2023-03-03T12:35:06;96390;;;11.1;64
68891;BME280;55932;48.702;8.884;2023-03-03T12:39:57;96380;;;10.6;64.5
68891;BME280;55932;48.702;8.884;2023-03-03T12:42:44;96380;;;10.6;64.5
68891;BME280;55932;48.702;8.884;2023-03-03T12:44:56;96380;;;10.1;65
68891;BME280;55932;48.702;8.884;2023-03-03T12:47:27;96390;;;10.2;65
68891;BME280;55932;48.702;8.884;2023-03-03T12:50:01;96390;;;10.3;65
68891;BME280;55932;48.702;8.884;2023-03-03T12:52:28;96390;;;10.3;65
68891;BME280;55932;48.702;8.884;2023-03-03T12:55:00;96390;;;10.8;64.5
68891;BME280;55932;48.702;8.884;2023-03-03T13:08:09;96390;;;9.7;66
68891;BME280;55932;48.702;8.884;2023-03-03T13:10:14;96390;;;9.7;66
68891;BME280;55932;48.702;8.884;2023-03-03T13:12:43;96390;;;10.6;66.5
68891;BME280;55932;48.702;8.884;2023-03-03T13:15:11;96380;;;12.6;63.5
68891;BME280;55932;48.702;8.884;2023-03-03T13:17:44;96380;;;13.3;63
68891;BME280;55932;48.702;8.884;2023-03-03T13:20:16;96380;;;13.7;62.5
68891;BME280;55932;48.702;8.884;2023-03-03T13:22:31;96380;;;13.7;62.5
68891;BME280;55932;48.702;8.884;2023-03-03T13:30:03;96380;;;14.1;62.5
68891;BME280;55932;48.702;8.884;2023-03-03T13:32:34;96370;;;14.4;62
68891;BME280;55932;48.702;8.884;2023-03-03T13:35:06;96370;;;14.1;62.5
68891;BME280;55932;48.702;8.884;2023-03-03T13:37:34;96370;;;14.5;62.5
68891;BME280;55932;48.702;8.884;2023-03-03T13:40:04;96370;;;14.5;62
68891;BME280;55932;48.702;8.884;2023-03-03T13:45:22;96370;;;13.8;63
68891;BME280;55932;48.702;8.884;2023-03-03T13:47:51;96370;;;13.8;63
68891;BME280;55932;48.702;8.884;2023-03-03T13:50:23;96370;;;13.3;63
68891;BME280;55932;48.702;8.884;2023-03-03T14:03:04;96360;;;13.9;62.5
68891;BME280;55932;48.702;8.884;2023-03-03T14:05:49;96350;;;14.2;62.5
68891;BME280;55932;48.702;8.884;2023-03-03T14:07:50;96350;;;13.8;62.5
68891;BME280;55932;48.702;8.884;2023-03-03T14:10:18;96360;;;13.4;63.5
68891;BME280;55932;48.702;8.884;2023-03-03T14:17:39;96350;;;14.5;62
68891;BME280;55932;48.702;8.884;2023-03-03T14:20:11;96350;;;14.4;61.5
68891;BME280;55932;48.702;8.884;2023-03-03T14:22:41;96350;;;14.3;62.5
68891;BME280;55932;48.702;8.884;2023-03-03T14:25:10;96350;;;14.3;62.5
68891;BME280;55932;48.702;8.884;2023-03-03T14:27:40;96350;;;14.1;62.5
68891;BME280;55932;48.702;8.884;2023-03-03T14:32:40;96350;;;13.5;63
68891;BME280;55932;48.702;8.884;2023-03-03T14:35:16;96350;;;13.4;63
68891;BME280;55932;48.702;8.884;2023-03-03T14:45:14;96350;;;13.8;62.5
68891;BME280;55932;48.702;8.884;2023-03-03T14:50:26;96350;;;13.7;62
68891;BME280;55932;48.702;8.884;2023-03-03T14:52:44;96350;;;13.8;61.5
68891;BME280;55932;48.702;8.884;2023-03-03T14:55:32;96350;;;13.5;62
68891;BME280;55932;48.702;8.884;2023-03-03T14:57:44;96350;;;13.2;62
68891;BME280;55932;48.702;8.884;2023-03-03T15:07:50;96350;;;13.1;61.5
68891;BME280;55932;48.702;8.884;2023-03-03T15:20:34;96340;;;12.1;60.5
68891;BME280;55932;48.702;8.884;2023-03-03T15:25:34;96330;;;11;60.5
68891;BME280;55932;48.702;8.884;2023-03-03T15:30:33;96340;;;10.4;60.5
68891;BME280;55932;48.702;8.884;2023-03-03T15:32:53;96340;;;9.8;61
68891;BME280;55932;48.702;8.884;2023-03-03T15:35:30;96340;;;9.8;61.5
68891;BME280;55932;48.702;8.884;2023-03-03T15:38:11;96340;;;9.7;61.5
68891;BME280;55932;48.702;8.884;2023-03-03T15:40:24;96340;;;9.5;61.5
68891;BME280;55932;48.702;8.884;2023-03-03T15:43:02;96340;;;9.3;62.5
68891;BME280;55932;48.702;8.884;2023-03-03T15:45:25;96340;;;9.3;63
68891;BME280;55932;48.702;8.884;2023-03-03T15:47:58;96340;;;9.5;62.5
